createdAt,value
2019-03-31T00:00:36.283Z,84.30
2019-03-31T00:03:05.605Z,84.20
2019-03-31T00:05:37.256Z,84.00
2019-03-31T00:08:05.849Z,84.00
2019-03-31T00:10:35.305Z,84.30
2019-03-31T00:13:04.803Z,84.90
2019-03-31T00:15:34.217Z,84.90
2019-03-31T00:18:03.537Z,85.60
2019-03-31T00:20:32.742Z,85.90
2019-03-31T00:23:02.037Z,86.20
2019-03-31T00:25:31.360Z,86.10
2019-03-31T00:28:00.584Z,85.70
2019-03-31T00:30:30.372Z,86.00
2019-03-31T00:32:59.682Z,85.40
2019-03-31T00:35:28.918Z,85.20
2019-03-31T00:37:58.176Z,85.10
2019-03-31T00:40:27.642Z,85.30
2019-03-31T00:42:57.598Z,85.50
2019-03-31T00:45:27.025Z,85.60
2019-03-31T00:47:56.623Z,86.40
2019-03-31T00:50:26.800Z,86.20
2019-03-31T00:52:56.103Z,86.70
2019-03-31T00:55:25.366Z,86.80
2019-03-31T00:57:54.830Z,87.10
2019-03-31T01:00:42.458Z,87.40
2019-03-31T01:03:11.811Z,87.90
2019-03-31T01:05:42.641Z,88.10
2019-03-31T01:08:12.501Z,88.20
2019-03-31T01:10:42.121Z,88.40
2019-03-31T01:13:12.227Z,88.70
2019-03-31T01:15:41.916Z,88.50
2019-03-31T01:18:11.894Z,88.50
2019-03-31T01:20:41.414Z,88.50
2019-03-31T01:23:10.714Z,88.80
2019-03-31T01:25:40.077Z,88.90
2019-03-31T01:28:09.723Z,88.70
2019-03-31T01:30:39.312Z,88.80
2019-03-31T01:33:09.391Z,88.50
2019-03-31T01:35:38.898Z,88.70
2019-03-31T01:38:08.157Z,88.70
2019-03-31T01:40:37.641Z,89.00
2019-03-31T01:43:07.404Z,89.20
2019-03-31T01:45:37.710Z,89.30
2019-03-31T01:48:06.940Z,89.20
2019-03-31T01:50:36.209Z,89.30
2019-03-31T01:53:06.590Z,89.20
2019-03-31T01:55:36.285Z,89.20
2019-03-31T01:58:05.605Z,89.10
2019-03-31T02:00:38.696Z,89.20
2019-03-31T02:03:07.962Z,89.50
2019-03-31T02:05:37.472Z,89.40
2019-03-31T02:08:06.954Z,89.60
2019-03-31T02:10:36.490Z,89.70
2019-03-31T02:13:06.106Z,89.90
2019-03-31T02:15:35.489Z,90.00
2019-03-31T02:18:04.840Z,90.10
2019-03-31T02:20:34.355Z,90.00
2019-03-31T02:23:04.015Z,90.00
2019-03-31T02:25:33.524Z,90.10
2019-03-31T02:28:03.016Z,90.30
2019-03-31T02:30:32.526Z,90.40
2019-03-31T02:33:01.853Z,90.40
2019-03-31T02:35:31.093Z,90.40
2019-03-31T02:38:00.720Z,90.50
2019-03-31T02:40:30.032Z,90.60
2019-03-31T02:42:59.807Z,90.60
2019-03-31T02:45:29.913Z,90.80
2019-03-31T02:48:00.366Z,90.90
2019-03-31T02:50:48.496Z,90.90
2019-03-31T02:53:18.975Z,90.90
2019-03-31T02:55:48.964Z,91.00
2019-03-31T02:58:19.675Z,91.10
2019-03-31T03:00:48.948Z,91.20
2019-03-31T03:03:19.276Z,91.30
2019-03-31T03:05:49.263Z,91.40
2019-03-31T03:08:23.262Z,91.80
2019-03-31T03:10:53.999Z,91.50
2019-03-31T03:13:27.086Z,91.80
2019-03-31T03:16:19.752Z,92.00
2019-03-31T03:18:50.101Z,92.00
2019-03-31T03:21:23.786Z,92.10
2019-03-31T03:23:51.588Z,92.30
2019-03-31T03:26:20.978Z,92.30
2019-03-31T03:28:50.335Z,92.50
2019-03-31T03:31:20.124Z,92.50
2019-03-31T03:33:49.823Z,92.60
2019-03-31T03:36:19.449Z,92.60
2019-03-31T03:38:49.031Z,92.70
2019-03-31T03:41:18.276Z,92.80
2019-03-31T03:43:55.867Z,92.90
2019-03-31T03:46:18.742Z,92.90
2019-03-31T03:48:48.172Z,93.20
2019-03-31T03:51:17.492Z,93.20
2019-03-31T03:53:46.890Z,93.30
2019-03-31T03:56:16.181Z,93.50
2019-03-31T03:58:46.345Z,93.50
2019-03-31T04:01:23.683Z,93.70
2019-03-31T04:03:53.219Z,93.90
2019-03-31T04:06:22.689Z,94.00
2019-03-31T04:08:51.959Z,94.10
2019-03-31T04:11:23.842Z,94.10
2019-03-31T04:13:54.450Z,94.10
2019-03-31T04:16:24.515Z,94.20
2019-03-31T04:18:54.051Z,94.20
2019-03-31T04:21:23.438Z,94.30
2019-03-31T04:23:53.576Z,94.30
2019-03-31T04:26:22.891Z,94.40
2019-03-31T04:28:53.088Z,94.40
2019-03-31T04:31:22.494Z,94.40
2019-03-31T04:33:53.151Z,94.20
2019-03-31T04:36:22.692Z,94.20
2019-03-31T04:38:52.305Z,94.10
2019-03-31T04:41:21.651Z,94.30
2019-03-31T04:43:51.370Z,94.00
2019-03-31T04:46:21.199Z,94.00
2019-03-31T04:48:51.550Z,93.90
2019-03-31T04:51:21.469Z,94.00
2019-03-31T04:53:50.797Z,94.10
2019-03-31T04:56:20.269Z,94.20
2019-03-31T04:58:49.965Z,94.20
2019-03-31T05:01:19.958Z,94.20
2019-03-31T05:04:03.398Z,94.20
2019-03-31T05:06:20.175Z,94.10
2019-03-31T05:08:49.767Z,94.00
2019-03-31T05:11:19.234Z,93.90
2019-03-31T05:13:48.476Z,93.70
2019-03-31T05:16:18.064Z,93.60
2019-03-31T05:18:47.569Z,93.20
2019-03-31T05:21:17.095Z,92.60
2019-03-31T05:23:46.617Z,92.10
2019-03-31T05:26:16.100Z,91.30
2019-03-31T05:28:45.653Z,90.70
2019-03-31T05:31:14.975Z,90.00
2019-03-31T05:33:44.437Z,89.30
2019-03-31T05:36:13.718Z,88.90
2019-03-31T05:38:43.131Z,88.60
2019-03-31T05:41:12.353Z,88.10
2019-03-31T05:43:41.853Z,87.50
2019-03-31T05:46:11.116Z,87.40
2019-03-31T05:48:40.402Z,87.10
2019-03-31T05:51:10.788Z,87.30
2019-03-31T05:53:41.357Z,87.60
2019-03-31T05:56:10.980Z,88.90
2019-03-31T05:58:40.574Z,90.10
2019-03-31T06:01:10.227Z,90.60
2019-03-31T06:03:39.739Z,91.00
2019-03-31T06:06:09.232Z,91.40
2019-03-31T06:08:38.515Z,91.70
2019-03-31T06:11:07.788Z,91.80
2019-03-31T06:13:37.061Z,91.90
2019-03-31T06:16:06.362Z,92.00
2019-03-31T06:18:35.820Z,91.80
2019-03-31T06:21:06.046Z,91.80
2019-03-31T06:23:35.446Z,91.70
2019-03-31T06:26:04.786Z,91.50
2019-03-31T06:28:34.337Z,91.20
2019-03-31T06:31:04.004Z,91.00
2019-03-31T06:33:33.452Z,91.20
2019-03-31T06:36:03.237Z,90.60
2019-03-31T06:38:32.728Z,86.20
2019-03-31T06:41:05.030Z,79.50
2019-03-31T06:43:37.272Z,72.60
2019-03-31T06:46:06.858Z,67.00
2019-03-31T06:48:36.221Z,63.30
2019-03-31T06:51:05.613Z,60.80
2019-03-31T06:53:35.291Z,59.10
2019-03-31T06:56:06.343Z,56.60
2019-03-31T06:58:35.837Z,53.70
2019-03-31T07:01:05.411Z,52.20
2019-03-31T07:03:34.933Z,51.70
2019-03-31T07:06:04.481Z,52.00
2019-03-31T07:08:33.801Z,50.40
2019-03-31T07:11:03.071Z,48.50
2019-03-31T07:13:32.299Z,48.00
2019-03-31T07:16:01.729Z,47.10
2019-03-31T07:18:31.191Z,45.30
2019-03-31T07:21:00.938Z,44.50
2019-03-31T07:23:30.319Z,45.90
2019-03-31T07:25:59.705Z,45.60
2019-03-31T07:28:29.565Z,45.00
2019-03-31T07:30:59.547Z,45.30
2019-03-31T07:33:28.853Z,47.40
2019-03-31T07:35:58.084Z,50.50
2019-03-31T07:38:38.279Z,49.30
2019-03-31T07:41:11.955Z,49.00
2019-03-31T07:43:30.244Z,51.20
2019-03-31T07:45:59.835Z,53.50
2019-03-31T07:48:29.320Z,56.70
2019-03-31T07:50:58.547Z,60.20
2019-03-31T07:53:27.927Z,62.90
2019-03-31T07:55:57.166Z,66.10
2019-03-31T07:58:26.842Z,67.80
2019-03-31T08:00:56.131Z,69.30
2019-03-31T08:03:26.555Z,70.20
2019-03-31T08:05:59.061Z,71.10
2019-03-31T08:08:28.480Z,72.40
2019-03-31T08:10:57.718Z,73.80
2019-03-31T08:13:27.805Z,74.60
2019-03-31T08:15:57.124Z,74.80
2019-03-31T08:18:26.739Z,75.20
2019-03-31T08:20:58.894Z,75.10
2019-03-31T08:23:28.219Z,74.50
2019-03-31T08:25:57.697Z,72.90
2019-03-31T08:28:27.243Z,72.40
2019-03-31T08:30:58.189Z,68.40
2019-03-31T08:33:27.431Z,66.40
2019-03-31T08:35:56.718Z,63.80
2019-03-31T08:38:26.391Z,59.40
2019-03-31T08:40:58.283Z,58.20
2019-03-31T08:43:27.785Z,58.10
2019-03-31T08:45:57.240Z,59.90
2019-03-31T08:48:26.489Z,63.00
2019-03-31T08:50:56.045Z,65.20
2019-03-31T08:53:25.684Z,67.10
2019-03-31T08:55:54.981Z,69.30
2019-03-31T08:58:24.340Z,69.80
2019-03-31T09:01:00.618Z,69.90
2019-03-31T09:03:29.883Z,69.30
2019-03-31T09:06:02.021Z,68.60
2019-03-31T09:08:30.458Z,67.70
2019-03-31T09:10:59.832Z,67.90
2019-03-31T09:13:29.073Z,69.10
2019-03-31T09:15:58.361Z,68.70
2019-03-31T09:18:27.673Z,68.80
2019-03-31T09:20:57.019Z,70.00
2019-03-31T09:23:26.746Z,70.40
2019-03-31T09:25:56.426Z,70.90
2019-03-31T09:28:26.163Z,70.90
2019-03-31T09:30:55.787Z,71.30
2019-03-31T09:33:25.037Z,72.60
2019-03-31T09:35:54.249Z,73.50
2019-03-31T09:38:23.483Z,74.10
2019-03-31T09:40:52.997Z,75.30
2019-03-31T09:43:22.249Z,76.70
2019-03-31T09:45:51.796Z,77.60
2019-03-31T09:48:21.018Z,78.40
2019-03-31T09:50:50.562Z,79.50
2019-03-31T09:53:20.209Z,80.50
2019-03-31T09:55:49.780Z,81.00
2019-03-31T09:58:19.130Z,80.00
2019-03-31T10:00:50.011Z,79.30
2019-03-31T10:03:20.058Z,78.80
2019-03-31T10:05:49.615Z,78.20
2019-03-31T10:08:21.981Z,76.80
2019-03-31T10:10:52.387Z,75.10
2019-03-31T10:13:22.551Z,73.20
2019-03-31T10:15:52.206Z,72.80
2019-03-31T10:18:21.698Z,73.10
2019-03-31T10:20:50.943Z,73.40
2019-03-31T10:23:20.179Z,72.90
2019-03-31T10:25:49.423Z,72.50
2019-03-31T10:28:18.699Z,72.70
2019-03-31T10:30:49.300Z,70.90
2019-03-31T10:33:19.484Z,70.70
2019-03-31T10:35:49.507Z,69.80
2019-03-31T10:38:19.078Z,66.90
2019-03-31T10:40:48.412Z,63.70
2019-03-31T10:43:17.642Z,62.00
2019-03-31T10:45:46.949Z,61.50
2019-03-31T10:48:20.775Z,62.90
2019-03-31T10:50:48.010Z,63.30
2019-03-31T10:53:17.485Z,63.50
2019-03-31T10:55:46.738Z,64.00
2019-03-31T10:58:15.946Z,63.00
2019-03-31T11:00:45.922Z,62.80
2019-03-31T11:03:15.439Z,61.90
2019-03-31T11:05:45.067Z,60.00
2019-03-31T11:08:14.662Z,60.00
2019-03-31T11:10:43.901Z,58.20
2019-03-31T11:13:13.400Z,58.50
2019-03-31T11:15:43.181Z,57.90
2019-03-31T11:18:12.460Z,58.00
2019-03-31T11:20:41.875Z,58.10
2019-03-31T11:23:22.748Z,58.90
2019-03-31T11:25:52.795Z,58.90
2019-03-31T11:28:22.469Z,56.70
2019-03-31T11:30:51.879Z,55.00
2019-03-31T11:33:21.934Z,55.40
2019-03-31T11:35:54.219Z,56.70
2019-03-31T11:38:23.532Z,58.00
2019-03-31T11:40:52.832Z,58.60
2019-03-31T11:43:22.062Z,58.30
2019-03-31T11:45:51.482Z,59.10
2019-03-31T11:48:22.053Z,59.10
2019-03-31T11:50:51.337Z,58.20
2019-03-31T11:53:21.246Z,57.40
2019-03-31T11:55:50.831Z,54.20
2019-03-31T11:58:21.260Z,54.10
2019-03-31T12:00:52.952Z,54.60
2019-03-31T12:03:22.341Z,54.80
2019-03-31T12:05:56.502Z,53.40
2019-03-31T12:08:28.457Z,51.90
2019-03-31T12:10:58.498Z,52.40
2019-03-31T12:13:32.744Z,49.70
2019-03-31T12:16:02.363Z,50.20
2019-03-31T12:18:32.177Z,49.10
2019-03-31T12:21:01.744Z,48.80
2019-03-31T12:23:31.045Z,48.20
2019-03-31T12:26:00.670Z,48.30
2019-03-31T12:28:30.173Z,47.40
2019-03-31T12:30:59.453Z,46.60
2019-03-31T12:33:28.713Z,47.00
2019-03-31T12:35:58.056Z,46.90
2019-03-31T12:38:27.364Z,46.30
2019-03-31T12:40:56.636Z,46.40
2019-03-31T12:43:25.877Z,47.30
2019-03-31T12:45:55.305Z,47.30
2019-03-31T12:48:24.841Z,46.40
2019-03-31T12:50:54.374Z,46.10
2019-03-31T12:53:23.740Z,46.70
2019-03-31T12:55:59.875Z,46.40
2019-03-31T12:58:24.330Z,45.30
2019-03-31T13:00:53.659Z,45.20
2019-03-31T13:03:23.197Z,45.00
2019-03-31T13:05:52.402Z,44.10
2019-03-31T13:08:21.946Z,43.70
2019-03-31T13:10:51.195Z,43.50
2019-03-31T13:13:20.421Z,44.00
2019-03-31T13:15:49.792Z,44.20
2019-03-31T13:18:19.125Z,43.90
2019-03-31T13:20:50.270Z,43.30
2019-03-31T13:23:20.569Z,43.60
2019-03-31T13:25:49.954Z,42.80
2019-03-31T13:28:19.186Z,43.10
2019-03-31T13:30:48.716Z,43.50
2019-03-31T13:33:17.988Z,43.60
2019-03-31T13:35:48.847Z,43.60
2019-03-31T13:38:18.433Z,43.20
2019-03-31T13:40:50.477Z,44.00
2019-03-31T13:43:18.890Z,44.10
2019-03-31T13:45:48.836Z,44.60
2019-03-31T13:48:18.140Z,44.60
2019-03-31T13:50:47.459Z,44.60
2019-03-31T13:53:16.866Z,43.90
2019-03-31T13:55:46.345Z,43.20
2019-03-31T13:58:19.353Z,43.20
2019-03-31T14:00:50.376Z,43.40
2019-03-31T14:03:19.898Z,43.10
2019-03-31T14:05:50.871Z,43.60
2019-03-31T14:08:26.053Z,43.20
2019-03-31T14:10:51.262Z,43.00
2019-03-31T14:13:21.480Z,43.30
2019-03-31T14:15:51.094Z,42.60
2019-03-31T14:18:21.107Z,42.60
2019-03-31T14:20:50.418Z,43.40
2019-03-31T14:23:20.180Z,43.00
2019-03-31T14:25:50.003Z,43.40
2019-03-31T14:28:19.283Z,42.70
2019-03-31T14:30:49.044Z,42.30
2019-03-31T14:33:18.302Z,41.70
2019-03-31T14:35:48.697Z,41.70
2019-03-31T14:38:18.121Z,41.80
2019-03-31T14:40:47.629Z,42.30
2019-03-31T14:43:16.934Z,42.40
2019-03-31T14:45:46.278Z,42.50
2019-03-31T14:48:15.547Z,42.20
2019-03-31T14:50:44.833Z,41.60
2019-03-31T14:53:14.216Z,42.00
2019-03-31T14:55:43.723Z,43.30
2019-03-31T14:58:13.220Z,42.80
2019-03-31T15:00:42.865Z,42.60
2019-03-31T15:03:12.163Z,42.90
2019-03-31T15:05:41.469Z,42.70
2019-03-31T15:08:10.872Z,41.90
2019-03-31T15:10:40.290Z,42.00
2019-03-31T15:13:09.678Z,41.80
2019-03-31T15:15:39.542Z,42.00
2019-03-31T15:18:45.841Z,41.70
2019-03-31T15:21:15.481Z,42.10
2019-03-31T15:24:00.638Z,42.10
2019-03-31T15:26:31.289Z,42.80
2019-03-31T15:29:01.033Z,43.20
2019-03-31T15:31:30.562Z,43.10
2019-03-31T15:34:00.849Z,43.00
2019-03-31T15:36:32.889Z,42.60
2019-03-31T15:39:08.852Z,42.50
2019-03-31T15:41:33.159Z,42.40
2019-03-31T15:44:02.908Z,42.00
2019-03-31T15:46:32.239Z,42.30
2019-03-31T15:49:01.621Z,41.70
2019-03-31T15:51:46.093Z,41.80
2019-03-31T15:54:15.831Z,40.30
2019-03-31T15:56:45.414Z,39.20
2019-03-31T15:59:14.651Z,39.60
2019-03-31T16:01:43.975Z,37.70
2019-03-31T16:04:13.551Z,37.00
2019-03-31T16:06:42.918Z,36.90
2019-03-31T16:09:22.820Z,36.20
2019-03-31T16:11:53.163Z,37.50
2019-03-31T16:14:12.851Z,36.80
2019-03-31T16:16:41.601Z,35.90
2019-03-31T16:19:10.690Z,35.70
2019-03-31T16:21:39.453Z,35.50
2019-03-31T16:24:08.233Z,35.10
2019-03-31T16:26:37.182Z,35.60
2019-03-31T16:29:06.082Z,36.00
2019-03-31T16:31:34.793Z,35.70
2019-03-31T16:34:03.483Z,36.00
2019-03-31T16:36:32.417Z,37.00
2019-03-31T16:39:01.537Z,37.50
2019-03-31T16:41:30.290Z,38.10
2019-03-31T16:44:12.189Z,38.80
2019-03-31T16:46:41.999Z,39.00
2019-03-31T16:49:11.474Z,39.60
2019-03-31T16:51:41.542Z,40.00
2019-03-31T16:54:15.056Z,40.00
2019-03-31T16:56:43.765Z,40.00
2019-03-31T16:59:12.862Z,40.10
2019-03-31T17:01:41.610Z,40.20
2019-03-31T17:04:13.091Z,40.40
2019-03-31T17:06:42.299Z,40.40
2019-03-31T17:09:11.071Z,40.60
2019-03-31T17:11:39.757Z,40.30
2019-03-31T17:14:08.780Z,40.20
2019-03-31T17:16:38.896Z,40.40
2019-03-31T17:19:07.820Z,40.30
2019-03-31T17:21:36.514Z,40.70
2019-03-31T17:24:05.217Z,41.00
2019-03-31T17:26:33.988Z,40.40
2019-03-31T17:29:02.797Z,40.40
2019-03-31T17:31:33.028Z,40.60
2019-03-31T17:34:01.693Z,40.90
2019-03-31T17:36:30.457Z,39.80
2019-03-31T17:38:59.202Z,39.70
2019-03-31T17:41:27.950Z,39.70
2019-03-31T17:43:57.174Z,40.00
2019-03-31T17:46:26.054Z,40.30
2019-03-31T17:48:55.018Z,41.10
2019-03-31T17:51:23.716Z,41.50
2019-03-31T17:53:52.803Z,42.20
2019-03-31T17:56:21.502Z,42.90
2019-03-31T17:58:50.579Z,43.20
2019-03-31T18:01:19.236Z,43.60
2019-03-31T18:03:48.141Z,44.40
2019-03-31T18:06:16.924Z,45.10
2019-03-31T18:08:45.578Z,45.20
2019-03-31T18:11:14.270Z,44.90
2019-03-31T18:13:43.262Z,44.90
2019-03-31T18:16:11.950Z,44.90
2019-03-31T18:18:40.637Z,45.00
2019-03-31T18:21:09.666Z,45.10
2019-03-31T18:23:38.498Z,45.10
2019-03-31T18:26:07.509Z,45.30
2019-03-31T18:28:36.826Z,45.30
2019-03-31T18:31:05.730Z,45.30
2019-03-31T18:33:35.030Z,45.40
2019-03-31T18:36:03.934Z,45.50
2019-03-31T18:38:32.856Z,45.70
2019-03-31T18:41:03.641Z,45.70
2019-03-31T18:43:32.004Z,45.70
2019-03-31T18:46:00.811Z,45.80
2019-03-31T18:48:29.552Z,45.70
2019-03-31T18:50:58.274Z,45.90
2019-03-31T18:53:46.696Z,46.10
2019-03-31T18:56:40.999Z,46.20
2019-03-31T18:59:27.502Z,46.30
2019-03-31T19:02:16.502Z,46.60
2019-03-31T19:05:16.590Z,46.80
2019-03-31T19:08:20.182Z,46.90
2019-03-31T19:10:58.245Z,46.80
2019-03-31T19:13:55.209Z,47.00
2019-03-31T19:16:41.702Z,47.00
2019-03-31T19:19:24.056Z,47.20
2019-03-31T19:22:15.286Z,47.60
2019-03-31T19:25:08.707Z,47.30
2019-03-31T19:28:09.037Z,47.60
2019-03-31T19:31:12.332Z,47.90
2019-03-31T19:34:06.414Z,48.20
2019-03-31T19:36:46.377Z,48.60
2019-03-31T19:39:41.892Z,48.80
2019-03-31T19:42:38.679Z,49.00
2019-03-31T19:45:24.035Z,48.90
2019-03-31T19:48:04.800Z,49.20
2019-03-31T19:50:51.417Z,49.60
2019-03-31T19:53:29.062Z,49.40
2019-03-31T19:56:14.453Z,49.70
2019-03-31T19:59:07.558Z,49.80
2019-03-31T20:01:58.162Z,50.00
2019-03-31T20:04:52.158Z,50.20
2019-03-31T20:07:40.033Z,50.50
2019-03-31T20:10:32.310Z,50.80
2019-03-31T20:13:32.434Z,50.80
2019-03-31T20:16:19.768Z,51.00
2019-03-31T20:19:06.079Z,51.30
2019-03-31T20:21:44.074Z,51.20
2019-03-31T20:24:26.913Z,51.10
2019-03-31T20:27:06.454Z,49.80
2019-03-31T20:29:43.391Z,50.20
2019-03-31T20:32:29.748Z,50.00
2019-03-31T20:35:04.870Z,49.60
2019-03-31T20:37:45.640Z,49.60
2019-03-31T20:40:29.281Z,49.90
2019-03-31T20:43:08.801Z,50.00
2019-03-31T20:45:37.978Z,50.20
2019-03-31T20:48:06.702Z,49.90
2019-03-31T20:50:35.803Z,50.30
2019-03-31T20:53:04.618Z,50.20
2019-03-31T20:55:33.607Z,50.20
2019-03-31T20:58:02.620Z,50.60
2019-03-31T21:00:31.390Z,50.90
2019-03-31T21:03:00.061Z,51.50
2019-03-31T21:05:28.765Z,51.70
2019-03-31T21:07:57.736Z,51.60
2019-03-31T21:10:26.678Z,51.60
2019-03-31T21:12:55.734Z,52.10
2019-03-31T21:15:24.713Z,52.10
2019-03-31T21:17:53.499Z,52.30
2019-03-31T21:20:22.345Z,52.20
2019-03-31T21:22:51.129Z,52.10
2019-03-31T21:25:19.805Z,52.40
2019-03-31T21:27:49.012Z,52.40
2019-03-31T21:30:17.773Z,52.40
2019-03-31T21:32:46.437Z,52.50
2019-03-31T21:35:15.498Z,52.60
2019-03-31T21:37:44.190Z,52.80
2019-03-31T21:40:13.613Z,53.00
2019-03-31T21:42:42.365Z,52.60
2019-03-31T21:45:11.194Z,52.30
2019-03-31T21:47:40.158Z,52.20
2019-03-31T21:50:10.274Z,52.30
2019-03-31T21:52:38.925Z,52.10
2019-03-31T21:55:07.698Z,52.10
2019-03-31T21:57:37.031Z,52.10
2019-03-31T22:00:07.834Z,52.10
2019-03-31T22:02:36.759Z,51.90
2019-03-31T22:05:06.145Z,52.40
2019-03-31T22:07:35.013Z,52.40
2019-03-31T22:10:03.937Z,52.70
2019-03-31T22:12:32.826Z,52.70
2019-03-31T22:15:01.762Z,52.90
2019-03-31T22:17:30.571Z,53.20
2019-03-31T22:20:00.011Z,53.30
2019-03-31T22:22:29.134Z,53.70
2019-03-31T22:24:58.020Z,54.10
2019-03-31T22:27:26.752Z,54.50
2019-03-31T22:29:55.464Z,54.60
2019-03-31T22:32:24.155Z,54.70
2019-03-31T22:34:53.222Z,55.00
2019-03-31T22:37:22.253Z,55.00
2019-03-31T22:39:51.002Z,55.20
2019-03-31T22:42:20.065Z,56.10
2019-03-31T22:44:48.755Z,56.10
2019-03-31T22:47:17.437Z,56.20
2019-03-31T22:49:46.434Z,56.60
2019-03-31T22:52:15.142Z,56.80
2019-03-31T22:54:43.822Z,57.00
2019-03-31T22:57:12.550Z,57.30
2019-03-31T22:59:41.230Z,57.50
2019-03-31T23:02:09.921Z,57.80
2019-03-31T23:04:38.931Z,58.10
2019-03-31T23:07:07.790Z,58.50
2019-03-31T23:09:36.476Z,59.10
2019-03-31T23:12:05.190Z,59.40
2019-03-31T23:14:34.146Z,59.50
2019-03-31T23:17:03.315Z,59.70
2019-03-31T23:19:32.035Z,60.00
2019-03-31T23:22:00.991Z,60.10
2019-03-31T23:24:29.667Z,60.20
2019-03-31T23:26:58.665Z,60.40
2019-03-31T23:29:27.517Z,60.50
2019-03-31T23:31:56.455Z,61.00
2019-03-31T23:34:25.245Z,61.30
2019-03-31T23:36:53.962Z,61.30
2019-03-31T23:39:22.638Z,61.70
2019-03-31T23:41:51.900Z,62.00
2019-03-31T23:44:20.690Z,62.40
2019-03-31T23:46:49.628Z,62.90
2019-03-31T23:49:18.425Z,63.30
2019-03-31T23:51:47.114Z,63.50
2019-03-31T23:54:15.780Z,63.50
2019-03-31T23:56:45.201Z,63.60
2019-03-31T23:59:13.929Z,63.90
